Time;durP1;ratioP1;P1;durP2;ratioP2;P2;SDS_P1;SDS_P2;PMS_P1;PMS_P2;Temp;Humidity;BMP_temperature;BMP_pressure;BME280_temperature;BME280_humidity;BME280_pressure;Samples;Min_cycle;Max_cycle;Signal;HPM_P1;HPM_P2
2023/12/20 00:00:05;;;;;;;;;8.75;8.25;;;;;9.91;88.33;101774.66;5055426;28;45473;-68
2023/12/20 00:02:31;;;;;;;;;10.25;7.00;;;;;9.86;88.79;101763.19;5056349;28;45464;-68
2023/12/20 00:04:56;;;;;;;;;11.00;8.75;;;;;9.89;88.37;101774.59;5054913;28;45426;-67
2023/12/20 00:07:22;;;;;;;;;6.25;6.00;;;;;9.81;88.34;101759.59;5058507;28;45461;-69
2023/12/20 00:09:47;;;;;;;;;11.75;9.75;;;;;9.90;87.59;101780.75;5057715;28;45603;-68
2023/12/20 00:12:14;;;;;;;;;9.75;9.00;;;;;9.83;87.26;101781.47;5053153;28;45521;-67
2023/12/20 00:14:39;;;;;;;;;10.00;8.50;;;;;9.81;87.00;101786.66;5053839;28;45486;-68
2023/12/20 00:17:05;;;;;;;;;11.25;8.75;;;;;9.80;87.02;101795.38;5055329;28;45625;-69
2023/12/20 00:19:30;;;;;;;;;5.50;5.50;;;;;9.54;86.75;101751.19;5056707;28;45475;-67
2023/12/20 00:21:56;;;;;;;;;9.25;7.25;;;;;9.77;86.50;101797.88;5056071;28;45456;-69
2023/12/20 00:24:21;;;;;;;;;8.50;5.50;;;;;9.80;87.11;101810.16;5054093;28;45472;-69
2023/12/20 00:26:47;;;;;;;;;8.25;6.25;;;;;9.81;86.03;101809.31;5055816;28;45604;-68
2023/12/20 00:29:12;;;;;;;;;10.50;7.50;;;;;9.77;86.02;101805.72;5055872;28;45729;-69
2023/12/20 00:31:47;;;;;;;;;8.50;7.25;;;;;9.60;85.04;101781.81;5053243;28;45457;-68
2023/12/20 00:34:12;;;;;;;;;8.00;6.25;;;;;9.78;84.29;101818.00;5056246;27;45567;-69
2023/12/20 00:36:44;;;;;;;;;6.50;5.00;;;;;9.70;84.30;101814.28;5054871;28;45428;-68
2023/12/20 00:39:10;;;;;;;;;7.00;6.50;;;;;9.73;84.01;101825.72;5050754;28;47700;-66
2023/12/20 00:41:44;;;;;;;;;10.00;6.75;;;;;9.72;84.04;101831.78;5056248;28;45454;-68
2023/12/20 00:44:09;;;;;;;;;8.00;4.50;;;;;9.71;82.35;101826.53;5055553;28;45724;-66
2023/12/20 00:46:35;;;;;;;;;4.25;4.00;;;;;9.63;81.78;101812.38;5061258;28;45551;-66
2023/12/20 00:49:00;;;;;;;;;5.25;4.00;;;;;9.67;80.47;101829.94;5051884;28;45897;-69
2023/12/20 00:51:26;;;;;;;;;4.50;4.00;;;;;9.66;80.33;101838.63;5056651;28;45559;-69
2023/12/20 00:53:54;;;;;;;;;2.00;2.00;;;;;9.64;80.09;101825.50;5055248;28;45759;-68
2023/12/20 00:56:20;;;;;;;;;3.50;1.00;;;;;9.57;79.25;101822.72;5055964;28;45352;-68
2023/12/20 00:58:47;;;;;;;;;2.00;2.00;;;;;9.36;78.64;101804.78;5055946;28;46027;-68
2023/12/20 01:01:12;;;;;;;;;7.50;5.00;;;;;9.31;79.22;101802.06;5055133;28;45533;-69
2023/12/20 01:03:38;;;;;;;;;5.25;3.50;;;;;9.37;78.77;101820.50;5052289;28;45440;-69
2023/12/20 01:06:05;;;;;;;;;5.25;2.50;;;;;9.30;78.44;101811.66;5055740;28;45409;-70
2023/12/20 01:08:30;;;;;;;;;4.00;2.75;;;;;9.29;78.62;101828.16;5054764;28;45379;-67
2023/12/20 01:10:56;;;;;;;;;3.25;2.25;;;;;9.30;76.73;101835.16;5055070;28;45402;-67
2023/12/20 01:13:22;;;;;;;;;4.00;2.00;;;;;9.26;77.08;101825.47;5056083;28;45452;-67
2023/12/20 01:15:47;;;;;;;;;2.75;1.75;;;;;9.20;76.71;101830.53;5056899;28;45416;-66
2023/12/20 01:18:13;;;;;;;;;2.75;1.50;;;;;9.20;77.90;101840.13;5055034;28;46256;-66
2023/12/20 01:20:39;;;;;;;;;3.00;2.00;;;;;9.06;77.14;101826.69;5055681;28;45461;-67
2023/12/20 01:23:04;;;;;;;;;2.25;2.25;;;;;9.01;76.65;101834.41;5054359;28;45384;-67
2023/12/20 01:25:30;;;;;;;;;3.75;2.50;;;;;8.91;77.02;101829.81;5056118;28;45367;-67
2023/12/20 01:27:57;;;;;;;;;2.00;1.25;;;;;9.09;76.32;101855.53;5058305;28;46171;-67
2023/12/20 01:30:22;;;;;;;;;1.75;1.00;;;;;9.03;76.33;101847.53;5043301;28;45352;-67
2023/12/20 01:32:48;;;;;;;;;3.25;1.00;;;;;9.04;76.47;101854.50;5057367;28;45566;-67
2023/12/20 01:35:14;;;;;;;;;2.00;2.00;;;;;9.04;76.13;101857.13;5062180;28;45336;-69
2023/12/20 01:37:39;;;;;;;;;2.00;1.00;;;;;9.01;76.41;101847.47;5057261;28;45536;-67
2023/12/20 01:40:05;;;;;;;;;2.50;1.00;;;;;9.00;76.56;101855.28;5057252;28;45441;-69
2023/12/20 01:42:31;;;;;;;;;2.50;0.75;;;;;8.98;76.75;101851.75;5057417;28;45349;-68
2023/12/20 01:44:56;;;;;;;;;3.25;0.50;;;;;8.97;76.75;101855.19;5059288;28;45442;-67
2023/12/20 01:47:22;;;;;;;;;1.00;1.00;;;;;8.89;76.26;101852.38;5059021;28;46227;-67
2023/12/20 01:49:49;;;;;;;;;1.50;1.50;;;;;8.88;77.17;101859.34;5057270;28;45462;-67
2023/12/20 01:52:14;;;;;;;;;2.25;1.00;;;;;8.85;76.51;101861.88;5057878;28;45433;-69
2023/12/20 01:54:42;;;;;;;;;1.00;1.00;;;;;8.83;76.81;101863.56;5057361;28;45527;-67
2023/12/20 01:57:08;;;;;;;;;2.00;0.25;;;;;8.83;77.17;101875.75;5057031;28;45432;-67
2023/12/20 01:59:35;;;;;;;;;1.00;0.75;;;;;8.80;76.94;101871.31;5054941;28;45536;-68
2023/12/20 02:02:03;;;;;;;;;4.00;1.00;;;;;8.80;77.07;101876.53;5057980;28;45700;-66
2023/12/20 02:04:29;;;;;;;;;1.00;1.00;;;;;8.64;77.13;101856.06;5056938;28;45985;-66
2023/12/20 02:06:57;;;;;;;;;1.00;1.00;;;;;8.78;77.19;101880.84;5048274;28;45526;-68
2023/12/20 02:09:24;;;;;;;;;5.25;1.50;;;;;8.74;76.26;101873.75;5057369;28;45457;-68
2023/12/20 02:11:49;;;;;;;;;0.50;0.50;;;;;8.79;77.03;101890.44;5056804;28;45472;-67
2023/12/20 02:14:15;;;;;;;;;1.00;1.00;;;;;8.81;76.48;101883.53;5056605;28;45413;-66
2023/12/20 02:16:41;;;;;;;;;1.00;1.00;;;;;8.81;76.61;101886.16;5057115;28;46104;-66
2023/12/20 02:19:40;;;;;;;;;5.00;1.00;;;;;8.66;76.60;101854.38;5051324;28;45564;-67
2023/12/20 02:22:13;;;;;;;;;2.75;2.00;;;;;8.77;77.03;101879.06;5053483;27;45398;-67
2023/12/20 02:24:40;;;;;;;;;1.00;1.00;;;;;8.81;75.66;101885.28;5055785;28;45423;-65
2023/12/20 02:27:06;;;;;;;;;1.00;0.75;;;;;8.93;76.03;101895.19;5057800;28;45475;-67
2023/12/20 02:29:36;;;;;;;;;2.50;1.00;;;;;8.92;75.54;101889.03;5057087;28;45643;-66
2023/12/20 02:32:02;;;;;;;;;1.50;1.00;;;;;8.98;75.35;101896.19;5051506;28;45518;-66
2023/12/20 02:34:28;;;;;;;;;2.50;1.00;;;;;8.99;75.42;101898.81;5056709;28;45460;-65
2023/12/20 02:36:54;;;;;;;;;1.25;1.00;;;;;8.99;75.21;101904.03;5056383;28;46171;-65
2023/12/20 02:39:20;;;;;;;;;0.75;0.75;;;;;8.86;75.19;101884.53;5056673;28;45374;-66
2023/12/20 02:41:47;;;;;;;;;1.00;1.00;;;;;8.96;74.99;101903.97;5057238;28;45399;-67
2023/12/20 02:44:12;;;;;;;;;2.00;1.00;;;;;8.97;74.89;101908.38;5056536;28;45459;-64
2023/12/20 02:46:38;;;;;;;;;1.00;1.00;;;;;8.86;74.29;101895.00;5056421;28;45575;-66
2023/12/20 02:49:03;;;;;;;;;2.00;1.00;;;;;8.98;74.67;101917.09;5056676;28;46011;-64
2023/12/20 02:51:29;;;;;;;;;2.25;1.00;;;;;8.93;75.12;101908.25;5057138;28;45389;-66
2023/12/20 02:53:54;;;;;;;;;2.00;1.00;;;;;8.96;74.62;101908.31;5056464;28;45516;-65
2023/12/20 02:56:20;;;;;;;;;3.00;1.00;;;;;8.89;74.10;101899.41;5056168;28;45793;-66
2023/12/20 02:58:45;;;;;;;;;1.75;1.00;;;;;8.87;74.32;101904.63;5056823;28;45439;-66
2023/12/20 03:01:11;;;;;;;;;3.00;1.00;;;;;8.84;74.75;101912.34;5057706;28;45454;-66
2023/12/20 03:03:37;;;;;;;;;3.50;1.00;;;;;8.85;74.75;101910.63;5057655;28;45468;-66
2023/12/20 03:06:02;;;;;;;;;3.00;1.75;;;;;8.81;74.48;101909.66;5057427;28;45617;-66
2023/12/20 03:08:28;;;;;;;;;1.50;1.25;;;;;8.79;74.65;101911.34;5056558;28;45389;-68
2023/12/20 03:10:53;;;;;;;;;1.00;1.00;;;;;8.78;74.20;101919.13;5057312;28;45321;-66
2023/12/20 03:13:19;;;;;;;;;4.00;1.00;;;;;8.71;74.05;101915.47;5057726;28;45508;-67
2023/12/20 03:15:45;;;;;;;;;2.50;1.00;;;;;8.71;74.39;101915.47;5055968;28;45951;-68
2023/12/20 03:18:11;;;;;;;;;2.50;1.50;;;;;8.70;74.37;101917.19;5056640;28;45422;-67
2023/12/20 03:20:37;;;;;;;;;2.00;1.00;;;;;8.69;74.42;101911.94;5056996;28;45279;-68
2023/12/20 03:23:03;;;;;;;;;5.00;1.25;;;;;8.61;74.20;101898.66;5057630;28;45461;-67
2023/12/20 03:25:29;;;;;;;;;5.25;1.00;;;;;8.60;74.79;101903.84;5054449;28;46973;-66
2023/12/20 03:27:54;;;;;;;;;1.50;1.00;;;;;8.55;74.35;101905.44;5059249;28;45263;-68
2023/12/20 03:30:20;;;;;;;;;0.75;0.75;;;;;8.61;74.48;101921.25;5059329;28;45563;-65
2023/12/20 03:32:46;;;;;;;;;4.00;2.00;;;;;8.59;75.00;101917.72;5059974;28;45527;-66
2023/12/20 03:35:15;;;;;;;;;3.75;1.00;;;;;8.42;75.18;101886.81;5059009;28;47181;-69
2023/12/20 03:37:41;;;;;;;;;2.75;1.00;;;;;8.54;75.09;101901.03;5058250;28;45631;-67
2023/12/20 03:40:07;;;;;;;;;2.50;1.00;;;;;8.60;74.43;101920.38;5058450;28;45408;-67
2023/12/20 03:42:32;;;;;;;;;2.75;1.25;;;;;8.40;74.18;101893.69;5060750;28;45466;-66
2023/12/20 03:44:58;;;;;;;;;3.00;1.00;;;;;8.49;74.75;101919.16;5059519;28;45495;-65
2023/12/20 03:47:23;;;;;;;;;4.25;1.25;;;;;8.47;75.11;101907.78;5058257;28;45447;-64
2023/12/20 03:49:49;;;;;;;;;1.00;1.00;;;;;8.38;75.08;101902.28;5059367;28;45419;-67
2023/12/20 03:52:14;;;;;;;;;1.00;1.00;;;;;8.47;75.08;101926.97;5060450;28;45364;-64
2023/12/20 03:54:42;;;;;;;;;3.00;3.00;;;;;8.37;74.86;101903.13;5060586;28;46617;-64
2023/12/20 03:57:08;;;;;;;;;2.50;1.50;;;;;8.49;75.23;101921.78;5061034;28;45491;-65
2023/12/20 03:59:37;;;;;;;;;1.00;1.00;;;;;8.45;75.31;101914.72;5061213;28;45380;-66
2023/12/20 04:02:03;;;;;;;;;3.00;1.50;;;;;8.46;74.64;101930.41;5060811;28;45524;-68
2023/12/20 04:04:29;;;;;;;;;8.25;1.50;;;;;8.49;74.77;101933.13;5058918;28;45719;-67
2023/12/20 04:06:54;;;;;;;;;3.25;1.00;;;;;8.47;74.90;101931.28;5058831;28;45294;-67
2023/12/20 04:09:20;;;;;;;;;2.00;0.25;;;;;8.47;75.00;101931.28;5059070;28;45360;-67
2023/12/20 04:11:46;;;;;;;;;4.00;1.00;;;;;8.45;75.18;101927.78;5058954;28;45495;-66
2023/12/20 04:14:12;;;;;;;;;1.00;1.00;;;;;8.44;75.05;101915.53;5054728;28;46965;-66
2023/12/20 04:16:38;;;;;;;;;1.00;1.00;;;;;8.39;75.29;101911.88;5060696;28;45361;-67
2023/12/20 04:19:04;;;;;;;;;5.75;2.00;;;;;8.38;74.90;101910.13;5059841;28;45222;-68
2023/12/20 04:21:30;;;;;;;;;0.00;0.00;;;;;8.35;75.10;101905.69;5058921;28;45476;-66
2023/12/20 04:23:55;;;;;;;;;2.75;1.00;;;;;8.26;74.92;101898.47;5059935;28;45560;-66
2023/12/20 04:26:21;;;;;;;;;5.25;2.00;;;;;8.38;75.29;101917.97;5059849;28;45471;-67
2023/12/20 04:28:47;;;;;;;;;2.00;0.00;;;;;8.36;75.08;101912.69;5058986;28;45365;-67
2023/12/20 04:31:12;;;;;;;;;5.00;1.00;;;;;8.34;74.70;101922.19;5057604;28;45524;-68
2023/12/20 04:33:38;;;;;;;;;2.00;1.00;;;;;8.32;74.84;101929.09;5058871;28;45485;-66
2023/12/20 04:36:04;;;;;;;;;2.75;1.50;;;;;8.34;75.10;101940.47;5057997;28;45557;-68
2023/12/20 04:38:29;;;;;;;;;1.00;1.00;;;;;8.39;74.92;101938.88;5058573;28;45611;-67
2023/12/20 04:40:55;;;;;;;;;3.00;1.75;;;;;8.39;74.82;101927.53;5057802;28;45425;-67
2023/12/20 04:43:21;;;;;;;;;3.00;1.00;;;;;8.28;75.11;101912.47;5058204;28;45566;-66
2023/12/20 04:45:46;;;;;;;;;4.50;2.00;;;;;8.26;74.85;101914.13;5058069;28;45494;-67
2023/12/20 04:48:12;;;;;;;;;5.50;1.25;;;;;8.15;75.32;101894.63;5058248;28;45364;-66
2023/12/20 04:50:38;;;;;;;;;1.50;1.00;;;;;8.17;74.87;101905.13;5058888;28;45309;-65
2023/12/20 04:53:03;;;;;;;;;2.25;2.00;;;;;8.34;75.32;101930.03;5058274;28;45420;-64
2023/12/20 04:55:29;;;;;;;;;3.00;1.00;;;;;8.32;74.93;101944.75;5058403;28;45491;-66
2023/12/20 04:57:56;;;;;;;;;1.25;1.00;;;;;8.29;75.02;101936.81;5058409;28;45423;-64
2023/12/20 05:00:21;;;;;;;;;2.00;1.00;;;;;8.28;75.31;101933.34;5058686;28;45537;-65
2023/12/20 05:02:47;;;;;;;;;2.75;2.00;;;;;8.27;75.11;101931.56;5058133;28;45343;-65
2023/12/20 05:05:14;;;;;;;;;4.25;2.50;;;;;8.26;75.43;101936.75;5058544;28;45540;-67
2023/12/20 05:07:40;;;;;;;;;7.25;3.00;;;;;8.24;75.13;101939.28;5059373;28;45452;-66
2023/12/20 05:10:08;;;;;;;;;4.50;2.00;;;;;8.16;75.10;101925.13;5059915;28;45439;-67
2023/12/20 05:12:34;;;;;;;;;1.25;1.25;;;;;8.24;75.36;101941.91;5060422;28;45405;-67
2023/12/20 05:15:00;;;;;;;;;3.75;2.00;;;;;8.16;75.34;101929.44;5058780;28;45350;-67
2023/12/20 05:17:25;;;;;;;;;4.00;2.00;;;;;8.23;75.28;101950.59;5062185;28;45433;-66
2023/12/20 05:19:51;;;;;;;;;3.50;1.50;;;;;8.17;75.37;101931.25;5061920;28;45598;-66
2023/12/20 05:22:20;;;;;;;;;1.00;0.75;;;;;8.21;75.03;101943.53;5058518;28;45768;-67
2023/12/20 05:24:45;;;;;;;;;6.25;2.00;;;;;8.21;75.02;101943.53;5058860;28;45349;-68
2023/12/20 05:27:11;;;;;;;;;2.50;0.25;;;;;8.10;75.17;101924.06;5059070;28;45361;-67
2023/12/20 05:29:37;;;;;;;;;3.00;1.75;;;;;8.18;75.38;101941.69;5059373;28;45451;-68
2023/12/20 05:32:04;;;;;;;;;2.00;1.00;;;;;8.06;75.52;101917.84;5060231;28;45518;-67
2023/12/20 05:34:30;;;;;;;;;1.00;1.00;;;;;8.05;74.92;101919.56;5058819;28;45254;-65
2023/12/20 05:36:56;;;;;;;;;3.75;1.00;;;;;8.14;75.08;101952.91;5057889;28;45480;-67
2023/12/20 05:39:22;;;;;;;;;2.25;1.00;;;;;8.15;75.06;101945.97;5058010;28;45283;-66
2023/12/20 05:41:50;;;;;;;;;3.75;1.50;;;;;8.08;75.23;101932.72;5057795;28;45446;-65
2023/12/20 05:44:15;;;;;;;;;1.00;1.00;;;;;8.14;75.13;101941.56;5058517;28;45383;-67
2023/12/20 05:46:41;;;;;;;;;6.75;1.00;;;;;8.08;75.05;101944.88;5058338;28;45488;-68
2023/12/20 05:49:07;;;;;;;;;2.00;1.25;;;;;8.04;75.14;101943.91;5057525;27;45583;-67
2023/12/20 05:51:32;;;;;;;;;2.50;2.00;;;;;8.13;75.17;101955.47;5058503;28;45613;-68
2023/12/20 05:53:58;;;;;;;;;4.50;1.00;;;;;8.13;75.04;101958.94;5059499;28;45356;-68
2023/12/20 05:56:24;;;;;;;;;4.50;1.75;;;;;8.12;74.77;101964.13;5057803;28;45356;-67
2023/12/20 05:58:50;;;;;;;;;4.00;2.50;;;;;8.07;74.77;101956.16;5058334;28;45425;-66
2023/12/20 06:01:17;;;;;;;;;2.25;1.00;;;;;8.06;75.14;101970.03;5058974;28;46589;-67
2023/12/20 06:03:42;;;;;;;;;3.25;2.00;;;;;7.99;75.14;101966.31;5057646;28;45556;-68
2023/12/20 06:06:08;;;;;;;;;2.75;1.00;;;;;8.01;75.40;101962.06;5059007;28;45756;-69
2023/12/20 06:08:34;;;;;;;;;3.25;0.75;;;;;8.06;75.22;101975.25;5058943;28;45490;-66
2023/12/20 06:11:00;;;;;;;;;2.00;0.50;;;;;8.06;75.36;101973.50;5055884;28;45528;-65
2023/12/20 06:13:50;;;;;;;;;1.00;1.00;;;;;8.05;75.20;101976.09;5056340;28;45329;-67
2023/12/20 06:16:15;;;;;;;;;3.00;2.00;;;;;8.00;75.63;101970.72;5044110;28;45396;-67
2023/12/20 06:18:41;;;;;;;;;3.00;1.75;;;;;8.06;75.26;101977.84;5058436;28;45484;-67
2023/12/20 06:21:07;;;;;;;;;2.25;1.00;;;;;8.05;75.35;101979.59;5057008;28;45476;-68
2023/12/20 06:23:33;;;;;;;;;5.00;2.25;;;;;8.06;74.84;101981.34;5058003;28;45396;-69
2023/12/20 06:25:59;;;;;;;;;3.25;2.00;;;;;8.05;74.93;101987.41;5057949;28;45583;-68
2023/12/20 06:28:27;;;;;;;;;3.50;2.25;;;;;7.82;75.49;101939.69;5058975;27;45412;-68
2023/12/20 06:30:54;;;;;;;;;5.50;2.50;;;;;7.97;75.22;101959.28;5058690;28;45555;-66
2023/12/20 06:33:23;;;;;;;;;8.00;3.00;;;;;7.75;75.32;101931.63;5057417;28;45348;-68
2023/12/20 06:35:49;;;;;;;;;4.25;2.50;;;;;7.96;75.55;101961.03;5039518;28;45495;-67
2023/12/20 06:38:15;;;;;;;;;2.00;2.00;;;;;7.83;75.21;101930.16;5057388;28;45596;-65
2023/12/20 06:40:40;;;;;;;;;3.75;1.25;;;;;8.05;75.20;101966.53;5056935;28;45392;-68
2023/12/20 06:43:06;;;;;;;;;1.00;1.00;;;;;7.97;74.67;101960.22;5056905;28;45412;-68
2023/12/20 06:45:32;;;;;;;;;3.00;1.75;;;;;8.02;75.46;101970.75;5055660;28;45824;-66
2023/12/20 06:47:58;;;;;;;;;2.00;2.00;;;;;7.97;75.37;101978.47;5057333;28;45451;-70
2023/12/20 06:50:24;;;;;;;;;5.00;3.00;;;;;7.87;75.18;101952.91;5056247;28;45928;-67
2023/12/20 06:52:49;;;;;;;;;2.75;2.00;;;;;7.98;75.11;101981.97;5056417;28;45388;-68
2023/12/20 06:55:15;;;;;;;;;4.00;1.00;;;;;7.91;75.54;101969.53;5057075;28;45557;-68
2023/12/20 06:57:41;;;;;;;;;4.75;1.00;;;;;7.85;75.59;101959.78;5058837;28;45456;-68
2023/12/20 07:00:08;;;;;;;;;3.50;1.75;;;;;7.95;75.69;101980.13;5057051;28;46334;-66
2023/12/20 07:02:34;;;;;;;;;2.25;2.25;;;;;7.95;75.53;101982.75;5056279;28;45453;-66
2023/12/20 07:05:00;;;;;;;;;2.00;2.00;;;;;7.63;75.64;101930.38;5054890;28;45403;-66
2023/12/20 07:07:26;;;;;;;;;2.25;2.00;;;;;7.95;75.34;101987.06;5057065;28;45381;-65
2023/12/20 07:09:51;;;;;;;;;2.75;1.00;;;;;7.90;75.54;101978.19;5056541;28;46330;-68
2023/12/20 07:12:19;;;;;;;;;3.50;3.25;;;;;7.87;75.73;101986.81;5056802;28;45355;-67
2023/12/20 07:14:45;;;;;;;;;3.75;2.25;;;;;7.87;76.12;101992.03;5057328;28;45456;-66
2023/12/20 07:17:13;;;;;;;;;1.75;1.75;;;;;7.81;75.87;101977.06;5057874;28;45404;-67
2023/12/20 07:19:39;;;;;;;;;2.00;2.00;;;;;7.86;76.07;101987.66;5057048;28;46260;-68
2023/12/20 07:22:06;;;;;;;;;7.25;2.50;;;;;7.73;75.80;101969.81;5055185;28;45396;-66
2023/12/20 07:24:32;;;;;;;;;4.50;2.00;;;;;7.80;75.96;101985.72;5055224;28;45470;-68
2023/12/20 07:26:59;;;;;;;;;3.50;2.50;;;;;7.83;75.96;101987.53;5056901;28;45510;-65
2023/12/20 07:29:25;;;;;;;;;5.25;3.00;;;;;7.85;75.93;101998.91;5056232;28;45979;-65
2023/12/20 07:31:52;;;;;;;;;1.75;1.75;;;;;7.85;75.97;101997.22;5054896;28;45314;-66
2023/12/20 07:34:17;;;;;;;;;2.25;2.25;;;;;7.79;76.32;101991.78;5056497;28;45421;-68
2023/12/20 07:36:43;;;;;;;;;3.50;2.00;;;;;7.89;76.22;102008.63;5057983;28;45389;-66
2023/12/20 07:39:09;;;;;;;;;2.75;2.00;;;;;7.84;76.03;102012.78;5056376;28;46950;-67
2023/12/20 07:41:35;;;;;;;;;2.75;1.25;;;;;7.87;76.31;102010.28;5054853;28;45454;-68
2023/12/20 07:44:01;;;;;;;;;4.00;2.75;;;;;7.94;76.50;102014.00;5057430;28;45535;-69
2023/12/20 07:46:26;;;;;;;;;3.75;1.00;;;;;7.94;76.46;102011.38;5057196;28;45620;-67
2023/12/20 07:48:52;;;;;;;;;1.25;1.25;;;;;7.89;76.49;102000.78;5058183;28;45892;-67
2023/12/20 07:51:18;;;;;;;;;4.25;2.25;;;;;7.97;76.37;102008.88;5056877;28;45317;-67
2023/12/20 07:53:44;;;;;;;;;3.75;2.00;;;;;8.00;76.18;102012.47;5056424;28;45337;-66
2023/12/20 07:56:20;;;;;;;;;3.50;2.00;;;;;8.05;76.28;102012.63;5057001;28;45440;-68
2023/12/20 07:58:48;;;;;;;;;5.25;2.50;;;;;8.07;76.22;102014.44;5054441;28;46191;-67
2023/12/20 08:01:13;;;;;;;;;3.00;2.75;;;;;7.81;76.50;101965.75;5048715;28;45571;-66
2023/12/20 08:03:39;;;;;;;;;4.00;4.00;;;;;8.18;76.23;102027.81;5055523;28;45337;-68
2023/12/20 08:06:04;;;;;;;;;6.00;3.00;;;;;8.26;75.77;102021.16;5054591;28;45448;-69
2023/12/20 08:08:30;;;;;;;;;4.00;2.50;;;;;8.28;75.28;102010.75;5055171;28;45499;-68
2023/12/20 08:10:59;;;;;;;;;6.75;3.00;;;;;8.24;75.37;101986.28;5054254;28;45480;-68
2023/12/20 08:13:25;;;;;;;;;5.00;2.00;;;;;8.50;75.38;102004.53;5051959;28;46124;-66
2023/12/20 08:15:52;;;;;;;;;7.25;2.25;;;;;8.87;74.27;101989.94;5058933;28;45483;-65
2023/12/20 08:18:17;;;;;;;;;5.50;3.75;;;;;9.50;73.43;102005.63;5059035;28;45474;-66
2023/12/20 08:20:43;;;;;;;;;8.50;3.25;;;;;9.81;72.06;101964.56;5043236;28;45621;-68
2023/12/20 08:23:09;;;;;;;;;5.00;3.50;;;;;10.65;70.03;102007.56;5044366;28;45576;-66
2023/12/20 08:25:34;;;;;;;;;4.25;3.00;;;;;11.36;68.35;102009.91;5045294;28;45412;-69
2023/12/20 08:28:02;;;;;;;;;3.75;2.75;;;;;12.07;66.31;102011.19;5046303;28;45637;-68
2023/12/20 08:30:29;;;;;;;;;6.50;3.50;;;;;12.83;63.65;102007.91;5044911;28;45649;-67
2023/12/20 08:32:55;;;;;;;;;4.67;3.00;;;;;13.52;62.25;101985.94;5046196;28;45478;-68
2023/12/20 08:35:21;;;;;;;;;4.00;2.33;;;;;14.36;59.45;101995.41;5043359;28;45286;-66
2023/12/20 08:37:47;;;;;;;;;4.00;3.00;;;;;15.08;57.15;101979.97;5057850;28;46605;-66
2023/12/20 08:40:13;;;;;;;;;4.00;3.00;;;;;15.78;55.03;101988.91;5064414;27;45326;-69
2023/12/20 08:42:38;;;;;;;;;6.00;5.00;;;;;16.46;54.13;101973.88;5059619;28;46108;-66
2023/12/20 08:45:05;;;;;;;;;1.00;0.33;;;;;17.19;51.59;101963.91;5060118;28;45488;-68
2023/12/20 08:47:30;;;;;;;;;4.33;3.00;;;;;18.00;49.39;101969.50;5058776;28;46196;-68
2023/12/20 08:49:58;;;;;;;;;3.33;3.00;;;;;18.85;48.65;101988.06;5057188;28;45497;-68
2023/12/20 08:52:24;;;;;;;;;3.00;3.00;;;;;19.56;46.11;101963.16;5059584;28;45608;-69
2023/12/20 08:54:53;;;;;;;;;4.00;2.67;;;;;20.22;44.69;101980.69;5058652;28;45361;-67
2023/12/20 08:57:20;;;;;;;;;4.00;4.00;;;;;20.74;42.88;101976.16;5058873;28;46148;-67
2023/12/20 08:59:47;;;;;;;;;3.33;3.33;;;;;21.24;41.61;101971.53;5058088;28;45597;-68
2023/12/20 09:02:13;;;;;;;;;2.33;1.67;;;;;21.35;40.60;101985.44;5044042;28;45388;-68
2023/12/20 09:04:38;;;;;;;;;3.00;2.33;;;;;20.42;41.24;101996.25;5053767;28;45360;-68
2023/12/20 09:07:04;;;;;;;;;4.00;3.00;;;;;19.70;41.52;101985.13;5058845;28;45306;-68
2023/12/20 09:09:38;;;;;;;;;6.00;3.00;;;;;18.89;42.38;101982.69;5057363;28;46169;-69
2023/12/20 09:12:05;;;;;;;;;2.33;2.00;;;;;18.74;43.17;101962.50;5074696;27;45479;-67
2023/12/20 09:14:31;;;;;;;;;2.67;2.00;;;;;19.73;42.38;101968.25;5060660;28;45490;-66
2023/12/20 09:16:56;;;;;;;;;3.00;2.00;;;;;20.81;40.57;101961.81;5059960;28;46121;-67
2023/12/20 09:19:22;;;;;;;;;3.33;3.00;;;;;21.99;38.95;101980.38;5059097;28;45472;-67
2023/12/20 09:21:47;;;;;;;;;3.00;3.00;;;;;22.96;37.51;101971.47;5058304;28;45262;-68
2023/12/20 09:24:13;;;;;;;;;2.33;2.33;;;;;23.74;36.15;101966.38;5055545;28;45414;-69
2023/12/20 09:26:39;;;;;;;;;2.67;2.00;;;;;23.88;34.80;101965.94;5057945;28;45554;-65
2023/12/20 09:29:07;;;;;;;;;2.75;2.75;;;;;24.12;34.42;101966.88;5057633;28;45476;-66
2023/12/20 09:31:33;;;;;;;;;2.50;2.50;;;;;23.25;34.95;101970.63;5057773;28;45420;-67
2023/12/20 09:33:58;;;;;;;;;4.75;3.00;;;;;21.74;36.92;101963.25;5057721;28;45712;-66
2023/12/20 09:36:24;;;;;;;;;4.00;3.00;;;;;20.40;38.65;101970.59;5058056;28;45302;-68
2023/12/20 09:38:49;;;;;;;;;3.67;3.00;;;;;19.06;40.24;101965.66;5058868;28;45315;-68
2023/12/20 09:41:15;;;;;;;;;6.00;4.00;;;;;18.05;42.03;101960.63;5059412;28;45563;-66
2023/12/20 09:43:42;;;;;;;;;3.00;3.00;;;;;17.44;43.91;101989.34;5057902;28;45500;-67
2023/12/20 09:46:11;;;;;;;;;4.67;3.00;;;;;17.71;44.13;101988.25;5058052;28;46777;-66
2023/12/20 09:48:38;;;;;;;;;7.33;5.67;;;;;18.51;43.33;101991.97;5058168;28;45466;-67
2023/12/20 09:51:04;;;;;;;;;5.00;2.00;;;;;18.17;42.50;101976.41;5058610;28;45511;-69
2023/12/20 09:53:33;;;;;;;;;5.00;3.00;;;;;17.48;44.01;101991.06;5059123;28;45439;-68
2023/12/20 09:56:00;;;;;;;;;3.33;2.00;;;;;17.18;44.85;101997.44;5057147;28;46212;-68
2023/12/20 09:58:26;;;;;;;;;4.00;4.00;;;;;17.08;45.48;101998.34;5056965;28;45549;-69
2023/12/20 10:00:53;;;;;;;;;12.00;9.67;;;;;16.84;45.90;102008.16;5057987;28;45415;-67
2023/12/20 10:03:24;;;;;;;;;7.33;7.00;;;;;16.63;45.93;101985.28;5057898;28;45650;-67
2023/12/20 10:05:54;;;;;;;;;7.33;5.00;;;;;17.23;46.03;101995.66;5057364;28;45421;-66
2023/12/20 10:08:21;;;;;;;;;4.00;3.00;;;;;19.41;43.20;101995.25;5055701;28;45547;-67
2023/12/20 10:10:47;;;;;;;;;4.67;3.00;;;;;19.25;42.26;101997.28;5057092;28;45391;-67
2023/12/20 10:13:13;;;;;;;;;6.67;3.00;;;;;18.59;43.17;102006.91;5057232;28;45429;-67
2023/12/20 10:15:39;;;;;;;;;5.00;4.33;;;;;17.86;44.21;101997.88;5057289;28;46251;-65
2023/12/20 10:18:05;;;;;;;;;7.00;4.00;;;;;17.19;45.31;101987.72;5056041;28;45521;-65
2023/12/20 10:20:31;;;;;;;;;12.33;3.33;;;;;16.78;46.11;102002.00;5057186;28;45862;-67
2023/12/20 10:22:58;;;;;;;;;5.00;3.67;;;;;16.56;46.70;102006.47;5057671;28;45411;-67
2023/12/20 10:25:24;;;;;;;;;5.33;3.00;;;;;16.48;47.24;101999.44;5056962;28;45434;-67
2023/12/20 10:28:18;;;;;;;;;4.67;4.67;;;;;16.15;47.79;101984.50;5057339;28;45753;-68
2023/12/20 10:30:44;;;;;;;;;7.00;4.00;;;;;16.27;47.78;101976.56;5057825;28;45444;-67
2023/12/20 10:33:10;;;;;;;;;6.00;4.00;;;;;19.13;44.10;101970.91;5056656;28;45589;-68
2023/12/20 10:35:38;;;;;;;;;3.00;2.33;;;;;21.86;39.58;101954.94;5055872;28;45731;-68
2023/12/20 10:38:05;;;;;;;;;5.33;4.00;;;;;23.87;35.81;101940.06;5056518;28;45448;-67
2023/12/20 10:40:36;;;;;;;;;4.67;3.33;;;;;24.83;34.31;101905.38;5057155;28;45419;-66
2023/12/20 10:43:03;;;;;;;;;5.33;5.00;;;;;23.60;34.92;101941.88;5056484;28;45526;-67
2023/12/20 10:45:28;;;;;;;;;6.00;4.00;;;;;22.18;36.56;101950.53;5057207;28;46021;-67
2023/12/20 10:47:55;;;;;;;;;4.00;3.33;;;;;20.98;37.92;101958.78;5056432;28;45436;-66
2023/12/20 10:50:21;;;;;;;;;4.33;2.67;;;;;19.90;39.73;101978.59;5056699;28;45413;-67
2023/12/20 10:52:47;;;;;;;;;6.00;4.00;;;;;18.93;41.57;101980.00;5056882;28;45373;-70
2023/12/20 10:55:13;;;;;;;;;4.67;3.00;;;;;18.12;42.75;101957.88;5056568;28;45567;-68
2023/12/20 10:57:39;;;;;;;;;6.00;3.00;;;;;18.55;43.14;101957.41;5056689;28;45483;-68
2023/12/20 11:00:12;;;;;;;;;6.33;4.00;;;;;21.48;39.42;101951.44;5056433;28;45381;-68
2023/12/20 11:02:40;;;;;;;;;8.33;5.00;;;;;23.35;35.92;101937.34;5056756;28;45444;-66
2023/12/20 11:05:14;;;;;;;;;7.00;5.33;;;;;22.92;35.94;101937.75;5054856;28;46187;-67
2023/12/20 11:07:48;;;;;;;;;8.00;6.00;;;;;21.57;37.24;101932.56;5057179;28;45387;-69
2023/12/20 11:10:21;;;;;;;;;2.33;2.33;;;;;20.43;39.26;101938.59;5043244;28;45284;-68
2023/12/20 11:13:14;;;;;;;;;5.00;3.00;;;;;19.65;40.80;101928.47;5042863;28;45468;-68
2023/12/20 11:15:40;;;;;;;;;4.00;2.00;;;;;19.25;41.25;101930.88;5057662;28;45441;-68
2023/12/20 11:18:06;;;;;;;;;0.67;0.00;;;;;18.78;42.05;101921.81;5057183;28;45503;-67
2023/12/20 11:20:39;;;;;;;;;3.00;3.00;;;;;18.31;44.42;101915.28;5057143;28;45401;-69
2023/12/20 11:23:06;;;;;;;;;2.00;2.00;;;;;17.86;46.23;101902.47;5044338;28;45534;-68
2023/12/20 11:25:56;;;;;;;;;3.67;1.33;;;;;17.46;47.31;101902.78;5056113;28;46385;-68
2023/12/20 11:28:26;;;;;;;;;3.67;2.00;;;;;17.10;48.88;101898.66;5054769;28;45450;-66